createdAt,value
2022-12-09T00:01:24.194Z,9.20
2022-12-09T00:03:52.443Z,10.73
2022-12-09T00:06:22.538Z,9.82
2022-12-09T00:08:51.095Z,8.98
2022-12-09T00:11:21.944Z,10.20
2022-12-09T00:13:50.933Z,10.43
2022-12-09T00:16:19.773Z,9.60
2022-12-09T00:18:48.338Z,10.40
2022-12-09T00:21:21.803Z,8.15
2022-12-09T00:23:51.561Z,8.60
2022-12-09T00:26:22.929Z,9.02
2022-12-09T00:28:52.024Z,8.75
2022-12-09T00:31:24.527Z,9.50
2022-12-09T00:33:54.414Z,10.63
2022-12-09T00:36:24.374Z,10.32
2022-12-09T00:38:54.227Z,10.82
2022-12-09T00:41:24.110Z,9.80
2022-12-09T00:43:52.667Z,9.13
2022-12-09T00:46:20.804Z,7.15
2022-12-09T00:48:49.391Z,8.23
2022-12-09T00:51:20.387Z,7.80
2022-12-09T00:53:50.429Z,8.70
2022-12-09T00:56:18.776Z,9.70
2022-12-09T00:58:48.645Z,8.60
2022-12-09T01:01:16.955Z,8.02
2022-12-09T01:03:45.759Z,8.73
2022-12-09T01:06:18.305Z,9.30
2022-12-09T01:08:47.701Z,10.02
2022-12-09T01:11:19.067Z,10.68
2022-12-09T01:13:49.064Z,9.82
2022-12-09T01:16:20.673Z,8.65
2022-12-09T01:18:50.207Z,9.05
2022-12-09T01:21:19.371Z,10.15
2022-12-09T01:23:48.051Z,9.55
2022-12-09T01:26:16.085Z,10.75
2022-12-09T01:28:44.571Z,10.25
2022-12-09T01:31:20.114Z,9.13
2022-12-09T01:33:49.227Z,9.02
2022-12-09T01:36:20.472Z,10.23
2022-12-09T01:38:50.061Z,9.40
2022-12-09T01:41:28.760Z,8.82
2022-12-09T01:44:11.773Z,10.25
2022-12-09T01:46:41.978Z,8.70
2022-12-09T01:49:13.174Z,10.95
2022-12-09T01:51:43.776Z,8.40
2022-12-09T01:54:16.102Z,9.38
2022-12-09T01:56:45.675Z,9.20
2022-12-09T01:59:16.076Z,9.00
2022-12-09T02:01:50.061Z,8.70
2022-12-09T02:04:18.773Z,10.00
2022-12-09T02:06:47.558Z,8.18
2022-12-09T02:09:18.811Z,8.30
2022-12-09T02:11:59.160Z,8.15
2022-12-09T02:14:34.675Z,7.22
2022-12-09T02:17:19.168Z,6.07
2022-12-09T02:20:01.480Z,6.20
2022-12-09T02:22:34.701Z,6.63
2022-12-09T02:25:13.535Z,6.10
2022-12-09T02:27:55.166Z,5.90
2022-12-09T02:30:25.784Z,6.95
2022-12-09T02:33:25.144Z,7.70
2022-12-09T02:35:58.587Z,8.00
2022-12-09T02:38:30.128Z,7.25
2022-12-09T02:41:03.364Z,7.60
2022-12-09T02:43:36.749Z,7.90
2022-12-09T02:46:07.855Z,6.70
2022-12-09T02:48:40.549Z,7.70
2022-12-09T02:51:15.291Z,7.10
2022-12-09T02:53:47.786Z,6.45
2022-12-09T02:56:16.950Z,6.40
2022-12-09T02:58:45.998Z,6.20
2022-12-09T03:01:23.962Z,7.65
2022-12-09T03:03:55.875Z,7.45
2022-12-09T03:06:32.112Z,5.60
2022-12-09T03:09:11.102Z,6.57
2022-12-09T03:11:40.948Z,6.30
2022-12-09T03:14:13.272Z,8.00
2022-12-09T03:16:46.080Z,5.95
2022-12-09T03:19:33.141Z,6.32
2022-12-09T03:22:07.726Z,6.10
2022-12-09T03:24:40.695Z,4.75
2022-12-09T03:27:13.381Z,4.85
2022-12-09T03:29:44.543Z,7.03
2022-12-09T03:32:14.010Z,5.43
2022-12-09T03:34:46.015Z,5.25
2022-12-09T03:37:18.220Z,5.72
2022-12-09T03:39:47.665Z,5.90
2022-12-09T03:42:19.845Z,5.88
2022-12-09T03:44:53.109Z,6.28
2022-12-09T03:47:22.239Z,6.07
2022-12-09T03:49:51.420Z,7.75
2022-12-09T03:52:24.089Z,6.63
2022-12-09T03:54:58.894Z,8.35
2022-12-09T03:57:27.832Z,8.27
2022-12-09T04:00:00.770Z,7.20
2022-12-09T04:02:30.237Z,7.63
2022-12-09T04:04:58.737Z,9.10
2022-12-09T04:07:28.502Z,8.02
2022-12-09T04:09:57.135Z,8.00
2022-12-09T04:12:25.977Z,8.48
2022-12-09T04:14:58.101Z,8.15
2022-12-09T04:17:26.545Z,8.27
2022-12-09T04:19:54.995Z,8.48
2022-12-09T04:22:23.530Z,8.90
2022-12-09T04:24:53.158Z,8.85
2022-12-09T04:27:21.683Z,9.38
2022-12-09T04:29:49.932Z,8.55
2022-12-09T04:32:18.409Z,8.93
2022-12-09T04:34:46.733Z,8.90
2022-12-09T04:37:16.724Z,8.73
2022-12-09T04:39:44.808Z,9.25
2022-12-09T04:42:14.613Z,8.60
2022-12-09T04:44:42.959Z,8.60
2022-12-09T04:47:12.782Z,8.02
2022-12-09T04:49:41.456Z,7.97
2022-12-09T04:52:09.571Z,8.65
2022-12-09T04:54:39.793Z,8.70
2022-12-09T04:57:08.510Z,7.65
2022-12-09T04:59:37.942Z,7.85
2022-12-09T05:02:06.455Z,8.57
2022-12-09T05:04:35.238Z,8.43
2022-12-09T05:07:03.951Z,9.02
2022-12-09T05:09:32.397Z,8.40
2022-12-09T05:12:00.536Z,9.75
2022-12-09T05:14:28.742Z,7.78
2022-12-09T05:17:08.122Z,9.02
2022-12-09T05:19:36.737Z,8.20
2022-12-09T05:22:05.307Z,8.15
2022-12-09T05:24:33.854Z,9.07
2022-12-09T05:27:02.156Z,7.28
2022-12-09T05:29:30.542Z,7.30
2022-12-09T05:31:59.046Z,8.00
2022-12-09T05:34:29.928Z,8.35
2022-12-09T05:36:58.417Z,8.05
2022-12-09T05:39:28.011Z,7.88
2022-12-09T05:41:56.523Z,7.47
2022-12-09T05:44:24.957Z,8.10
2022-12-09T05:46:53.584Z,7.13
2022-12-09T05:49:22.118Z,7.15
2022-12-09T05:51:52.078Z,9.52
2022-12-09T05:54:20.318Z,8.18
2022-12-09T05:56:49.122Z,7.68
2022-12-09T05:59:17.698Z,7.80
2022-12-09T06:01:45.871Z,7.68
2022-12-09T06:04:14.653Z,9.02
2022-12-09T06:06:43.252Z,7.97
2022-12-09T06:09:13.490Z,8.38
2022-12-09T06:11:42.399Z,8.20
2022-12-09T06:14:12.689Z,7.60
2022-12-09T06:16:41.548Z,8.13
2022-12-09T06:19:11.458Z,10.13
2022-12-09T06:21:41.053Z,9.02
2022-12-09T06:24:10.533Z,8.85
2022-12-09T06:26:40.566Z,8.32
2022-12-09T06:29:09.285Z,7.25
2022-12-09T06:31:37.906Z,7.72
2022-12-09T06:34:06.854Z,8.32
2022-12-09T06:36:35.058Z,9.02
2022-12-09T06:39:10.064Z,9.10
2022-12-09T06:41:42.129Z,9.25
2022-12-09T06:44:14.780Z,9.90
2022-12-09T06:46:51.168Z,9.18
2022-12-09T06:49:19.973Z,10.23
2022-12-09T06:52:26.464Z,10.60
2022-12-09T06:54:54.953Z,10.88
2022-12-09T06:57:25.042Z,9.35
2022-12-09T06:59:53.350Z,9.82
2022-12-09T07:02:22.684Z,9.75
2022-12-09T07:04:54.551Z,11.10
2022-12-09T07:07:23.349Z,10.98
2022-12-09T07:09:52.027Z,10.13
2022-12-09T07:12:20.721Z,11.48
2022-12-09T07:14:50.917Z,10.18
2022-12-09T07:17:21.549Z,10.75
2022-12-09T07:19:50.193Z,11.02
2022-12-09T07:22:18.606Z,10.80
2022-12-09T07:24:47.521Z,10.43
2022-12-09T07:27:19.590Z,11.18
2022-12-09T07:29:48.702Z,11.60
2022-12-09T07:32:18.521Z,12.50
2022-12-09T07:34:47.160Z,11.13
2022-12-09T07:37:15.716Z,10.35
2022-12-09T07:39:44.249Z,12.48
2022-12-09T07:42:12.629Z,11.77
2022-12-09T07:44:51.719Z,12.30
2022-12-09T07:47:21.381Z,12.15
2022-12-09T07:49:50.158Z,12.95
2022-12-09T07:52:19.787Z,11.20
2022-12-09T07:54:48.433Z,11.32
2022-12-09T07:57:16.564Z,12.43
2022-12-09T07:59:45.284Z,11.20
2022-12-09T08:02:13.612Z,12.70
2022-12-09T08:04:43.200Z,12.55
2022-12-09T08:07:13.587Z,13.10
2022-12-09T08:09:42.310Z,13.02
2022-12-09T08:12:12.740Z,12.60
2022-12-09T08:14:41.532Z,13.75
2022-12-09T08:17:09.883Z,14.20
2022-12-09T08:19:39.479Z,18.05
2022-12-09T08:22:09.395Z,19.08
2022-12-09T08:24:38.345Z,16.50
2022-12-09T08:27:06.833Z,16.23
2022-12-09T08:29:35.783Z,20.23
2022-12-09T08:32:04.774Z,16.65
2022-12-09T08:34:33.317Z,15.00
2022-12-09T08:37:02.541Z,15.43
2022-12-09T08:39:33.706Z,14.02
2022-12-09T08:42:02.320Z,14.95
2022-12-09T08:45:00.187Z,15.07
2022-12-09T08:47:39.738Z,14.77
2022-12-09T08:53:22.787Z,13.65
2022-12-09T08:55:52.707Z,15.05
2022-12-09T08:58:21.270Z,15.90
2022-12-09T09:00:49.660Z,15.07
2022-12-09T09:03:18.465Z,14.10
2022-12-09T09:05:47.618Z,13.88
2022-12-09T09:08:19.071Z,13.88
2022-12-09T09:10:47.729Z,13.80
2022-12-09T09:13:17.658Z,11.77
2022-12-09T09:15:46.431Z,12.77
2022-12-09T09:18:16.004Z,13.43
2022-12-09T09:20:46.289Z,13.77
2022-12-09T09:23:15.723Z,13.13
2022-12-09T09:25:46.970Z,17.58
2022-12-09T09:28:15.579Z,15.68
2022-12-09T09:30:45.925Z,14.30
2022-12-09T09:33:17.919Z,14.10
2022-12-09T09:35:46.850Z,15.65
2022-12-09T09:38:15.771Z,14.57
2022-12-09T09:40:44.456Z,13.23
2022-12-09T09:43:17.607Z,12.20
2022-12-09T09:45:48.093Z,13.15
2022-12-09T09:48:19.169Z,13.35
2022-12-09T09:50:54.529Z,12.32
2022-12-09T09:53:26.725Z,11.82
2022-12-09T09:56:00.032Z,12.73
2022-12-09T09:58:37.548Z,12.30
2022-12-09T10:01:10.701Z,12.95
2022-12-09T10:03:52.556Z,10.57
2022-12-09T10:06:37.522Z,11.63
2022-12-09T10:09:15.174Z,12.00
2022-12-09T10:11:57.280Z,13.23
2022-12-09T10:14:38.162Z,14.10
2022-12-09T10:17:19.917Z,13.07
2022-12-09T10:19:54.384Z,12.82
2022-12-09T10:22:25.814Z,13.65
2022-12-09T10:24:57.360Z,12.77
2022-12-09T10:27:31.565Z,12.95
2022-12-09T10:30:03.691Z,11.88
2022-12-09T10:32:34.988Z,13.07
2022-12-09T10:35:18.888Z,11.65
2022-12-09T10:37:58.940Z,13.32
2022-12-09T10:40:36.947Z,12.65
2022-12-09T10:43:39.147Z,12.32
2022-12-09T10:46:19.674Z,14.02
2022-12-09T10:48:58.038Z,12.65
2022-12-09T10:51:28.926Z,12.45
2022-12-09T10:54:00.411Z,11.63
2022-12-09T10:56:31.472Z,13.10
2022-12-09T10:59:11.455Z,12.88
2022-12-09T11:01:50.674Z,12.45
2022-12-09T11:04:25.155Z,11.63
2022-12-09T11:06:59.348Z,12.20
2022-12-09T11:09:32.237Z,11.25
2022-12-09T11:12:02.242Z,11.95
2022-12-09T11:14:35.813Z,13.40
2022-12-09T11:17:15.606Z,12.80
2022-12-09T11:19:48.932Z,11.77
2022-12-09T11:22:39.611Z,12.85
2022-12-09T11:25:28.089Z,12.68
2022-12-09T11:27:59.824Z,11.70
2022-12-09T11:30:31.858Z,12.85
2022-12-09T11:33:03.884Z,14.35
2022-12-09T11:35:39.410Z,13.85
2022-12-09T11:38:22.629Z,14.30
2022-12-09T11:41:02.397Z,15.10
2022-12-09T11:43:35.102Z,14.48
2022-12-09T11:46:17.315Z,13.85
2022-12-09T11:48:50.766Z,15.02
2022-12-09T11:51:23.496Z,13.98
2022-12-09T11:54:01.681Z,16.67
2022-12-09T11:56:32.081Z,15.02
2022-12-09T11:59:04.430Z,14.98
2022-12-09T12:01:46.741Z,14.63
2022-12-09T12:04:17.947Z,14.23
2022-12-09T12:06:49.688Z,13.35
2022-12-09T12:09:25.043Z,15.25
2022-12-09T12:12:02.728Z,14.82
2022-12-09T12:14:32.105Z,16.13
2022-12-09T12:17:09.646Z,15.43
2022-12-09T12:19:41.005Z,16.10
2022-12-09T12:22:39.188Z,14.82
2022-12-09T12:25:24.535Z,15.55
2022-12-09T12:28:13.537Z,13.38
2022-12-09T12:30:51.233Z,14.68
2022-12-09T12:34:07.735Z,13.63
2022-12-09T12:36:34.957Z,15.98
2022-12-09T12:39:13.920Z,15.38
2022-12-09T12:41:51.677Z,15.07
2022-12-09T12:45:02.525Z,15.00
2022-12-09T12:47:46.388Z,12.82
2022-12-09T12:50:44.503Z,15.55
2022-12-09T12:53:28.078Z,13.77
2022-12-09T12:56:02.920Z,14.93
2022-12-09T12:58:41.969Z,17.38
2022-12-09T13:01:18.231Z,18.65
2022-12-09T13:03:58.337Z,16.73
2022-12-09T13:06:36.951Z,17.23
2022-12-09T13:09:12.521Z,17.88
2022-12-09T13:11:53.633Z,18.98
2022-12-09T13:14:31.996Z,19.42
2022-12-09T13:17:02.468Z,16.00
2022-12-09T13:19:40.894Z,18.17
2022-12-09T13:22:15.719Z,16.17
2022-12-09T13:24:55.429Z,16.27
2022-12-09T13:27:37.165Z,16.95
2022-12-09T13:30:17.975Z,17.38
2022-12-09T13:33:19.354Z,15.60
2022-12-09T13:35:56.223Z,16.42
2022-12-09T13:38:36.884Z,17.58
2022-12-09T13:41:52.413Z,16.33
2022-12-09T13:44:27.077Z,16.52
2022-12-09T13:46:56.327Z,17.00
2022-12-09T13:49:26.718Z,17.08
2022-12-09T13:51:57.335Z,16.23
2022-12-09T13:54:28.952Z,16.55
2022-12-09T13:57:14.646Z,16.77
2022-12-09T13:59:49.525Z,14.85
2022-12-09T14:02:40.657Z,17.73
2022-12-09T14:09:01.719Z,16.00
2022-12-09T14:11:54.594Z,15.45
2022-12-09T14:15:36.640Z,16.70
2022-12-09T14:18:21.745Z,17.13
2022-12-09T14:21:24.701Z,17.90
2022-12-09T14:24:33.132Z,17.40
2022-12-09T14:27:19.385Z,17.15
2022-12-09T14:29:55.225Z,16.33
2022-12-09T14:32:31.281Z,15.75
2022-12-09T14:35:23.753Z,17.02
2022-12-09T14:38:07.144Z,17.65
2022-12-09T14:40:58.337Z,15.77
2022-12-09T14:44:09.828Z,18.67
2022-12-09T14:46:46.584Z,15.60
2022-12-09T14:49:21.924Z,17.77
2022-12-09T14:51:56.835Z,18.45
2022-12-09T14:54:31.874Z,18.83
2022-12-09T14:57:03.452Z,18.42
2022-12-09T14:59:35.181Z,18.50
2022-12-09T15:02:21.201Z,17.95
2022-12-09T15:04:54.819Z,17.30
2022-12-09T15:07:28.610Z,17.67
2022-12-09T15:10:03.163Z,19.60
2022-12-09T15:12:36.798Z,17.02
2022-12-09T15:15:13.770Z,18.13
2022-12-09T15:17:46.597Z,18.25
2022-12-09T15:20:29.881Z,20.60
2022-12-09T15:23:00.325Z,17.13
2022-12-09T15:25:32.645Z,20.75
2022-12-09T15:28:06.356Z,19.60
2022-12-09T15:30:37.748Z,20.05
2022-12-09T15:33:15.864Z,19.55
2022-12-09T15:35:56.660Z,19.02
2022-12-09T15:38:34.664Z,18.42
2022-12-09T15:41:28.280Z,20.17
2022-12-09T15:44:02.796Z,18.67
2022-12-09T15:46:38.326Z,18.85
2022-12-09T15:49:12.829Z,17.85
2022-12-09T15:51:49.248Z,18.90
2022-12-09T15:54:24.379Z,18.88
2022-12-09T15:59:58.473Z,18.52
2022-12-09T16:02:33.311Z,17.75
2022-12-09T16:05:06.226Z,18.27
2022-12-09T16:07:40.540Z,18.65
2022-12-09T16:10:18.017Z,16.75
2022-12-09T16:12:47.995Z,17.45
2022-12-09T16:15:52.659Z,17.67
2022-12-09T16:18:28.370Z,18.58
2022-12-09T16:21:19.271Z,19.90
2022-12-09T16:23:53.108Z,18.40
2022-12-09T16:26:31.544Z,18.70
2022-12-09T16:29:04.263Z,19.25
2022-12-09T16:31:39.585Z,18.30
2022-12-09T16:34:21.396Z,19.10
2022-12-09T16:36:56.229Z,19.40
2022-12-09T16:39:47.804Z,17.80
2022-12-09T16:42:30.176Z,19.80
2022-12-09T16:45:24.243Z,20.45
2022-12-09T16:47:56.766Z,21.13
2022-12-09T16:50:29.466Z,21.80
2022-12-09T16:53:03.791Z,22.23
2022-12-09T16:55:34.251Z,22.75
2022-12-09T16:58:02.512Z,19.85
2022-12-09T17:00:31.173Z,20.52
2022-12-09T17:03:08.768Z,21.15
2022-12-09T17:05:36.996Z,18.63
2022-12-09T17:08:05.724Z,20.70
2022-12-09T17:10:35.224Z,20.65
2022-12-09T17:13:03.667Z,19.88
2022-12-09T17:15:31.760Z,18.80
2022-12-09T17:18:00.226Z,19.35
2022-12-09T17:20:28.301Z,23.08
2022-12-09T17:22:56.413Z,23.70
2022-12-09T17:25:24.834Z,21.70
2022-12-09T17:27:55.486Z,23.70
2022-12-09T17:30:24.215Z,22.92
2022-12-09T17:32:52.768Z,23.92
2022-12-09T17:35:22.597Z,24.10
2022-12-09T17:37:51.763Z,27.50
2022-12-09T17:40:21.347Z,26.30
2022-12-09T17:42:50.101Z,24.00
2022-12-09T17:45:21.144Z,28.85
2022-12-09T17:47:50.531Z,23.95
2022-12-09T17:50:19.544Z,23.45
2022-12-09T17:52:48.615Z,23.88
2022-12-09T17:55:21.545Z,24.00
2022-12-09T17:57:55.151Z,20.58
2022-12-09T18:00:31.274Z,21.40
2022-12-09T18:03:04.435Z,21.88
2022-12-09T18:05:41.302Z,21.08
2022-12-09T18:08:13.301Z,22.63
2022-12-09T18:10:44.701Z,20.00
2022-12-09T18:13:16.648Z,19.75
2022-12-09T18:15:52.606Z,19.50
2022-12-09T18:18:24.933Z,22.40
2022-12-09T18:20:54.590Z,20.33
2022-12-09T18:23:23.667Z,21.65
2022-12-09T18:25:52.780Z,21.67
2022-12-09T18:28:21.747Z,20.15
2022-12-09T18:30:53.108Z,23.52
2022-12-09T18:33:22.741Z,24.02
2022-12-09T18:35:52.490Z,22.40
2022-12-09T18:38:21.660Z,24.10
2022-12-09T18:41:04.956Z,21.88
2022-12-09T18:43:37.992Z,22.80
2022-12-09T18:46:09.883Z,24.27
2022-12-09T18:48:39.644Z,32.78
2022-12-09T18:51:17.737Z,26.20
2022-12-09T18:53:54.154Z,22.27
2022-12-09T18:56:30.482Z,24.48
2022-12-09T18:59:07.511Z,24.98
2022-12-09T19:01:51.616Z,24.67
2022-12-09T19:04:28.929Z,23.23
2022-12-09T19:07:07.761Z,22.25
2022-12-09T19:09:37.919Z,24.52
2022-12-09T19:12:44.776Z,25.63
2022-12-09T19:14:58.237Z,26.85
2022-12-09T19:17:27.963Z,28.48
2022-12-09T19:19:56.715Z,23.90
2022-12-09T19:22:29.216Z,25.25
2022-12-09T19:25:00.077Z,21.80
2022-12-09T19:27:34.413Z,23.20
2022-12-09T19:30:10.415Z,24.98
2022-12-09T19:32:57.473Z,25.98
2022-12-09T19:35:25.850Z,24.08
2022-12-09T19:37:59.560Z,23.83
2022-12-09T19:40:35.101Z,24.02
2022-12-09T19:43:08.084Z,23.75
2022-12-09T19:45:45.463Z,24.58
2022-12-09T19:48:22.307Z,25.42
2022-12-09T19:50:58.940Z,25.25
2022-12-09T19:53:45.556Z,24.95
2022-12-09T19:56:22.087Z,26.70
2022-12-09T19:58:58.805Z,24.02
2022-12-09T20:01:31.901Z,26.90
2022-12-09T20:04:39.531Z,26.75
2022-12-09T20:07:07.833Z,25.70
2022-12-09T20:09:40.267Z,24.08
2022-12-09T20:12:12.799Z,24.60
2022-12-09T20:14:42.308Z,22.15
2022-12-09T20:17:10.912Z,22.98
2022-12-09T20:19:45.179Z,22.05
2022-12-09T20:22:17.837Z,22.77
2022-12-09T20:25:04.036Z,22.38
2022-12-09T20:27:33.712Z,23.60
2022-12-09T20:30:02.930Z,23.30
2022-12-09T20:32:36.881Z,24.25
2022-12-09T20:35:10.646Z,26.42
2022-12-09T20:37:39.808Z,26.48
2022-12-09T20:40:16.076Z,25.00
2022-12-09T20:42:46.524Z,24.80
2022-12-09T20:45:19.538Z,24.83
2022-12-09T20:47:54.526Z,27.58
2022-12-09T20:50:38.246Z,26.58
2022-12-09T20:53:18.344Z,24.98
2022-12-09T20:55:57.791Z,22.83
2022-12-09T20:58:26.545Z,24.48
2022-12-09T21:00:54.922Z,23.60
2022-12-09T21:03:25.731Z,23.35
2022-12-09T21:06:06.969Z,22.23
2022-12-09T21:08:42.503Z,23.45
2022-12-09T21:11:19.657Z,30.55
2022-12-09T21:13:55.066Z,24.45
2022-12-09T21:16:27.255Z,24.90
2022-12-09T21:18:57.375Z,23.02
2022-12-09T21:21:43.532Z,24.50
2022-12-09T21:24:12.668Z,24.33
2022-12-09T21:26:41.848Z,23.85
2022-12-09T21:29:12.363Z,23.80
2022-12-09T21:31:42.394Z,23.55
2022-12-09T21:34:11.678Z,26.20
2022-12-09T21:36:43.565Z,24.80
2022-12-09T21:39:13.735Z,24.52
2022-12-09T21:41:42.639Z,24.02
2022-12-09T21:44:15.699Z,23.10
2022-12-09T21:46:44.877Z,24.88
2022-12-09T21:49:14.983Z,24.58
2022-12-09T21:51:45.125Z,26.23
2022-12-09T21:54:13.604Z,24.75
2022-12-09T21:56:41.931Z,23.45
2022-12-09T21:59:12.289Z,23.38
2022-12-09T22:01:41.946Z,21.40
2022-12-09T22:04:28.890Z,22.15
2022-12-09T22:07:01.061Z,24.10
2022-12-09T22:09:29.825Z,23.92
2022-12-09T22:11:57.862Z,21.73
2022-12-09T22:14:26.038Z,24.95
2022-12-09T22:16:54.142Z,23.50
2022-12-09T22:19:22.383Z,21.60
2022-12-09T22:21:50.668Z,24.00
2022-12-09T22:24:20.703Z,22.42
2022-12-09T22:26:48.720Z,24.13
2022-12-09T22:29:18.328Z,24.75
2022-12-09T22:31:47.501Z,22.35
2022-12-09T22:34:17.181Z,24.70
2022-12-09T22:36:46.019Z,22.40
2022-12-09T22:39:15.601Z,22.02
2022-12-09T22:41:46.157Z,23.45
2022-12-09T22:44:29.652Z,23.10
2022-12-09T22:46:58.703Z,23.48
2022-12-09T22:49:26.918Z,23.00
2022-12-09T22:51:59.139Z,20.50
2022-12-09T22:54:28.893Z,21.83
2022-12-09T22:56:58.270Z,21.65
2022-12-09T22:59:26.510Z,22.17
2022-12-09T23:01:54.671Z,23.13
2022-12-09T23:04:24.834Z,23.45
2022-12-09T23:06:53.332Z,21.98
2022-12-09T23:09:25.546Z,21.90
2022-12-09T23:11:54.033Z,23.10
2022-12-09T23:14:23.500Z,22.48
2022-12-09T23:16:51.917Z,22.08
2022-12-09T23:19:20.215Z,25.23
2022-12-09T23:21:48.620Z,22.73
2022-12-09T23:24:24.316Z,24.48
2022-12-09T23:27:12.133Z,24.38
2022-12-09T23:29:41.790Z,25.17
2022-12-09T23:32:10.166Z,26.20
2022-12-09T23:34:38.469Z,22.17
2022-12-09T23:37:06.746Z,22.77
2022-12-09T23:39:34.795Z,23.10
2022-12-09T23:42:02.893Z,22.23
2022-12-09T23:44:31.137Z,21.95
2022-12-09T23:47:01.136Z,22.58
2022-12-09T23:49:29.761Z,22.33
2022-12-09T23:51:57.784Z,20.80
2022-12-09T23:54:26.137Z,23.98
2022-12-09T23:56:54.450Z,21.45
2022-12-09T23:59:24.132Z,21.02
